createdAt,value
2023-06-10T00:02:15.747Z,23.00
2023-06-10T00:04:42.864Z,23.00
2023-06-10T00:07:09.838Z,22.90
2023-06-10T00:09:38.344Z,22.80
2023-06-10T00:12:06.358Z,22.80
2023-06-10T00:14:33.179Z,22.70
2023-06-10T00:17:00.330Z,22.70
2023-06-10T00:19:31.088Z,22.60
2023-06-10T00:21:58.464Z,22.60
2023-06-10T00:24:25.169Z,22.60
2023-06-10T00:26:52.015Z,22.60
2023-06-10T00:29:18.760Z,22.50
2023-06-10T00:31:47.151Z,22.50
2023-06-10T00:34:13.991Z,22.50
2023-06-10T00:36:40.641Z,22.50
2023-06-10T00:39:07.321Z,22.40
2023-06-10T00:41:35.175Z,22.40
2023-06-10T00:44:02.093Z,22.40
2023-06-10T00:46:29.114Z,22.30
2023-06-10T00:48:56.009Z,22.20
2023-06-10T00:51:23.743Z,22.20
2023-06-10T00:53:50.884Z,22.20
2023-06-10T00:56:17.711Z,22.10
2023-06-10T00:58:44.609Z,22.10
2023-06-10T01:01:12.415Z,22.10
2023-06-10T01:03:40.628Z,22.00
2023-06-10T01:06:18.943Z,22.00
2023-06-10T01:08:57.035Z,22.00
2023-06-10T01:11:38.604Z,21.90
2023-06-10T01:14:06.459Z,21.80
2023-06-10T01:16:33.746Z,21.80
2023-06-10T01:19:01.520Z,21.80
2023-06-10T01:21:28.197Z,21.70
2023-06-10T01:23:57.312Z,21.70
2023-06-10T01:26:31.274Z,21.60
2023-06-10T01:29:09.397Z,21.60
2023-06-10T01:31:44.486Z,21.50
2023-06-10T01:34:17.650Z,21.50
2023-06-10T01:36:48.949Z,21.50
2023-06-10T01:39:23.599Z,21.40
2023-06-10T01:41:50.865Z,21.40
2023-06-10T01:44:22.104Z,21.40
2023-06-10T01:46:48.809Z,21.40
2023-06-10T01:49:15.543Z,21.40
2023-06-10T01:51:42.196Z,21.30
2023-06-10T01:54:09.128Z,21.30
2023-06-10T01:56:35.876Z,21.30
2023-06-10T01:59:02.526Z,21.30
2023-06-10T02:01:30.490Z,21.20
2023-06-10T02:03:57.264Z,21.30
2023-06-10T02:06:24.013Z,21.20
2023-06-10T02:08:50.669Z,21.20
2023-06-10T02:11:17.391Z,21.10
2023-06-10T02:13:44.363Z,21.10
2023-06-10T02:16:14.079Z,21.10
2023-06-10T02:18:44.237Z,21.00
2023-06-10T02:21:11.660Z,21.00
2023-06-10T02:23:38.478Z,21.00
2023-06-10T02:26:05.421Z,20.90
2023-06-10T02:28:32.202Z,20.90
2023-06-10T02:30:59.971Z,20.90
2023-06-10T02:33:28.265Z,20.90
2023-06-10T02:35:55.077Z,20.70
2023-06-10T02:38:21.990Z,20.70
2023-06-10T02:40:48.692Z,20.70
2023-06-10T02:43:15.416Z,20.60
2023-06-10T02:45:42.103Z,20.60
2023-06-10T02:48:08.793Z,20.50
2023-06-10T02:50:35.776Z,20.50
2023-06-10T02:53:02.481Z,20.40
2023-06-10T02:55:30.472Z,20.40
2023-06-10T02:57:57.223Z,20.30
2023-06-10T03:00:24.048Z,20.30
2023-06-10T03:02:50.799Z,20.30
2023-06-10T03:05:18.199Z,20.20
2023-06-10T03:07:44.831Z,20.20
2023-06-10T03:10:11.694Z,20.20
2023-06-10T03:12:38.467Z,20.20
2023-06-10T03:15:05.797Z,20.10
2023-06-10T03:17:32.854Z,20.00
2023-06-10T03:19:59.514Z,20.10
2023-06-10T03:22:26.303Z,20.00
2023-06-10T03:24:54.518Z,20.00
2023-06-10T03:27:21.414Z,20.00
2023-06-10T03:29:48.106Z,19.90
2023-06-10T03:32:14.852Z,19.90
2023-06-10T03:34:41.953Z,19.80
2023-06-10T03:37:08.713Z,19.80
2023-06-10T03:39:35.426Z,19.80
2023-06-10T03:42:02.148Z,19.80
2023-06-10T03:44:28.939Z,19.80
2023-06-10T03:46:57.328Z,19.70
2023-06-10T03:49:26.871Z,19.70
2023-06-10T03:51:53.997Z,19.80
2023-06-10T03:54:20.713Z,19.80
2023-06-10T03:56:49.285Z,19.80
2023-06-10T03:59:16.061Z,19.80
2023-06-10T04:01:42.922Z,19.80
2023-06-10T04:04:09.586Z,19.80
2023-06-10T04:06:36.433Z,19.80
2023-06-10T04:09:04.280Z,19.90
2023-06-10T04:11:30.940Z,19.90
2023-06-10T04:13:57.595Z,19.90
2023-06-10T04:16:24.321Z,19.90
2023-06-10T04:18:51.086Z,19.90
2023-06-10T04:21:18.224Z,20.00
2023-06-10T04:23:45.938Z,20.00
2023-06-10T04:26:13.404Z,20.00
2023-06-10T04:28:40.158Z,20.10
2023-06-10T04:31:06.973Z,20.10
2023-06-10T04:33:33.718Z,20.10
2023-06-10T04:36:00.901Z,20.20
2023-06-10T04:38:27.693Z,20.20
2023-06-10T04:40:54.367Z,20.30
2023-06-10T04:43:21.066Z,20.30
2023-06-10T04:45:48.115Z,20.30
2023-06-10T04:48:15.054Z,20.40
2023-06-10T04:50:41.881Z,20.50
2023-06-10T04:53:08.603Z,20.50
2023-06-10T04:55:35.376Z,20.60
2023-06-10T04:58:02.054Z,20.60
2023-06-10T05:00:28.937Z,20.70
2023-06-10T05:02:57.351Z,20.70
2023-06-10T05:05:24.123Z,20.80
2023-06-10T05:07:50.915Z,20.80
2023-06-10T05:10:17.688Z,20.90
2023-06-10T05:12:44.694Z,21.00
2023-06-10T05:15:12.091Z,21.00
2023-06-10T05:17:39.101Z,21.10
2023-06-10T05:20:06.382Z,21.10
2023-06-10T05:22:33.074Z,21.20
2023-06-10T05:24:59.750Z,21.30
2023-06-10T05:27:26.523Z,21.30
2023-06-10T05:29:53.197Z,21.30
2023-06-10T05:32:20.003Z,21.40
2023-06-10T05:34:46.759Z,21.40
2023-06-10T05:37:14.536Z,21.50
2023-06-10T05:39:41.257Z,21.50
2023-06-10T05:42:09.029Z,21.60
2023-06-10T05:44:36.191Z,21.60
2023-06-10T05:47:02.949Z,21.70
2023-06-10T05:49:29.705Z,21.80
2023-06-10T05:51:58.581Z,21.90
2023-06-10T05:54:27.039Z,21.90
2023-06-10T05:56:54.984Z,22.00
2023-06-10T05:59:23.787Z,22.10
2023-06-10T06:01:51.215Z,22.10
2023-06-10T06:04:18.057Z,22.20
2023-06-10T06:06:44.904Z,22.20
2023-06-10T06:09:11.597Z,22.20
2023-06-10T06:11:38.264Z,22.30
2023-06-10T06:14:05.016Z,22.30
2023-06-10T06:16:31.877Z,22.40
2023-06-10T06:18:58.713Z,22.40
2023-06-10T06:21:25.400Z,22.50
2023-06-10T06:23:52.257Z,22.50
2023-06-10T06:26:18.951Z,22.60
2023-06-10T06:28:45.744Z,22.70
2023-06-10T06:31:12.788Z,22.80
2023-06-10T06:33:39.534Z,22.80
2023-06-10T06:36:06.429Z,22.90
2023-06-10T06:38:33.139Z,23.00
2023-06-10T06:41:04.031Z,23.00
2023-06-10T06:43:31.497Z,23.10
2023-06-10T06:45:58.902Z,23.20
2023-06-10T06:48:31.709Z,23.30
2023-06-10T06:50:59.447Z,23.40
2023-06-10T06:53:26.505Z,23.50
2023-06-10T06:55:53.241Z,23.60
2023-06-10T06:58:20.031Z,23.60
2023-06-10T07:00:47.091Z,23.70
2023-06-10T07:03:13.976Z,23.80
2023-06-10T07:05:40.988Z,23.90
2023-06-10T07:08:07.874Z,24.00
2023-06-10T07:10:34.628Z,24.20
2023-06-10T07:13:01.447Z,24.30
2023-06-10T07:15:28.148Z,24.40
2023-06-10T07:17:54.909Z,24.50
2023-06-10T07:20:21.794Z,24.60
2023-06-10T07:22:48.536Z,24.70
2023-06-10T07:25:16.823Z,24.70
2023-06-10T07:27:43.548Z,24.80
2023-06-10T07:30:10.648Z,24.90
2023-06-10T07:32:37.546Z,24.90
2023-06-10T07:35:04.848Z,24.90
2023-06-10T07:37:31.608Z,24.90
2023-06-10T07:39:58.442Z,25.10
2023-06-10T07:42:25.147Z,25.10
2023-06-10T07:44:52.004Z,25.20
2023-06-10T07:47:19.541Z,25.20
2023-06-10T07:49:46.316Z,25.40
2023-06-10T07:52:13.150Z,25.40
2023-06-10T07:54:39.933Z,25.40
2023-06-10T07:57:08.150Z,25.50
2023-06-10T07:59:35.174Z,25.70
2023-06-10T08:02:02.036Z,25.70
2023-06-10T08:04:28.811Z,25.80
2023-06-10T08:06:55.748Z,25.90
2023-06-10T08:09:24.196Z,26.00
2023-06-10T08:11:50.931Z,26.00
2023-06-10T08:14:17.776Z,26.10
2023-06-10T08:16:44.831Z,26.20
2023-06-10T08:19:11.654Z,26.20
2023-06-10T08:21:40.576Z,26.30
2023-06-10T08:24:08.522Z,26.30
2023-06-10T08:26:35.738Z,26.40
2023-06-10T08:29:02.694Z,26.50
2023-06-10T08:31:29.543Z,26.60
2023-06-10T08:33:56.214Z,26.60
2023-06-10T08:36:23.092Z,26.70
2023-06-10T08:38:49.716Z,26.80
2023-06-10T08:41:18.919Z,26.80
2023-06-10T08:43:54.412Z,26.80
2023-06-10T08:46:21.714Z,26.90
2023-06-10T08:48:53.002Z,26.90
2023-06-10T08:51:20.663Z,27.00
2023-06-10T08:54:01.262Z,27.00
2023-06-10T08:56:29.595Z,27.20
2023-06-10T08:58:57.773Z,27.30
2023-06-10T09:01:26.905Z,27.40
2023-06-10T09:03:54.224Z,27.60
2023-06-10T09:06:21.287Z,27.80
2023-06-10T09:08:48.142Z,27.90
2023-06-10T09:11:14.854Z,28.10
2023-06-10T09:13:41.758Z,28.20
2023-06-10T09:16:08.487Z,28.40
2023-06-10T09:18:35.906Z,28.60
2023-06-10T09:21:02.743Z,28.70
2023-06-10T09:23:30.149Z,28.90
2023-06-10T09:25:58.999Z,29.00
2023-06-10T09:28:26.261Z,29.10
2023-06-10T09:31:05.353Z,29.20
2023-06-10T09:33:32.409Z,29.30
2023-06-10T09:36:02.459Z,29.40
2023-06-10T09:38:34.285Z,29.50
2023-06-10T09:41:04.343Z,29.60
2023-06-10T09:43:47.560Z,29.70
2023-06-10T09:46:21.341Z,29.90
2023-06-10T09:48:48.978Z,30.10
2023-06-10T09:51:18.314Z,30.20
2023-06-10T09:53:50.180Z,30.40
2023-06-10T09:56:17.193Z,30.50
2023-06-10T09:58:44.620Z,30.60
2023-06-10T10:01:12.499Z,30.80
2023-06-10T10:03:52.496Z,31.10
2023-06-10T10:06:21.486Z,31.20
2023-06-10T10:08:50.171Z,31.40
2023-06-10T10:11:22.294Z,31.70
2023-06-10T10:13:50.914Z,31.80
2023-06-10T10:16:20.913Z,31.90
2023-06-10T10:18:55.901Z,32.00
2023-06-10T10:21:26.755Z,32.00
2023-06-10T10:24:13.732Z,32.10
2023-06-10T10:26:41.163Z,32.10
2023-06-10T10:29:32.540Z,32.20
2023-06-10T10:32:02.420Z,32.20
2023-06-10T10:34:42.154Z,32.20
2023-06-10T10:37:09.074Z,32.10
2023-06-10T10:39:37.739Z,31.90
2023-06-10T10:42:06.805Z,31.90
2023-06-10T10:44:34.073Z,31.90
2023-06-10T10:47:05.190Z,32.00
2023-06-10T10:49:33.195Z,31.90
2023-06-10T10:52:01.991Z,31.90
2023-06-10T10:54:34.737Z,31.80
2023-06-10T10:57:12.030Z,31.80
2023-06-10T11:00:06.045Z,31.90
2023-06-10T11:02:34.305Z,32.00
2023-06-10T11:05:02.866Z,32.30
2023-06-10T11:07:34.179Z,32.40
2023-06-10T11:10:03.506Z,32.50
2023-06-10T11:12:42.349Z,32.60
2023-06-10T11:15:09.663Z,32.80
2023-06-10T11:17:36.686Z,33.00
2023-06-10T11:20:03.995Z,33.10
2023-06-10T11:22:30.972Z,33.30
2023-06-10T11:25:00.150Z,33.60
2023-06-10T11:27:29.046Z,33.80
2023-06-10T11:30:18.288Z,34.00
2023-06-10T11:32:45.242Z,34.00
2023-06-10T11:35:12.293Z,34.00
2023-06-10T11:37:39.515Z,33.90
2023-06-10T11:40:08.125Z,33.90
2023-06-10T11:42:39.176Z,33.80
2023-06-10T11:45:09.744Z,33.70
2023-06-10T11:47:36.626Z,33.60
2023-06-10T11:50:03.485Z,33.60
2023-06-10T11:52:33.273Z,33.60
2023-06-10T11:55:00.245Z,33.60
2023-06-10T11:57:26.973Z,33.70
2023-06-10T11:59:53.711Z,33.70
2023-06-10T12:02:20.672Z,33.60
2023-06-10T12:04:47.438Z,33.40
2023-06-10T12:07:21.093Z,33.30
2023-06-10T12:09:48.196Z,33.20
2023-06-10T12:12:15.252Z,33.30
2023-06-10T12:15:07.248Z,33.50
2023-06-10T12:17:35.228Z,33.80
2023-06-10T12:20:04.645Z,34.20
2023-06-10T12:22:42.712Z,34.50
2023-06-10T12:25:11.061Z,34.90
2023-06-10T12:27:39.395Z,35.20
2023-06-10T12:30:07.421Z,35.50
2023-06-10T12:32:46.639Z,35.70
2023-06-10T12:35:15.376Z,36.00
2023-06-10T12:37:43.720Z,36.20
2023-06-10T12:40:11.654Z,36.50
2023-06-10T12:42:39.183Z,36.70
2023-06-10T12:45:08.736Z,36.90
2023-06-10T12:47:39.175Z,37.20
2023-06-10T12:50:06.720Z,37.50
2023-06-10T12:52:33.735Z,37.70
2023-06-10T12:55:01.815Z,37.70
2023-06-10T12:57:28.824Z,37.80
2023-06-10T12:59:58.245Z,37.90
2023-06-10T13:02:25.478Z,37.90
2023-06-10T13:04:52.418Z,38.10
2023-06-10T13:07:19.308Z,38.10
2023-06-10T13:09:46.436Z,38.30
2023-06-10T13:12:16.665Z,38.60
2023-06-10T13:14:43.601Z,38.70
2023-06-10T13:17:10.472Z,38.90
2023-06-10T13:19:37.960Z,38.90
2023-06-10T13:22:04.763Z,39.00
2023-06-10T13:24:31.570Z,39.20
2023-06-10T13:26:58.720Z,39.40
2023-06-10T13:29:25.461Z,39.40
2023-06-10T13:31:52.245Z,39.40
2023-06-10T13:34:18.935Z,39.50
2023-06-10T13:36:45.613Z,39.70
2023-06-10T13:39:12.356Z,39.80
2023-06-10T13:41:39.115Z,39.80
2023-06-10T13:44:05.903Z,39.90
2023-06-10T13:46:32.583Z,40.00
2023-06-10T13:48:59.256Z,40.10
2023-06-10T13:51:26.240Z,40.20
2023-06-10T13:53:53.126Z,40.30
2023-06-10T13:56:20.070Z,40.40
2023-06-10T13:58:46.836Z,40.40
2023-06-10T14:01:13.626Z,40.50
2023-06-10T14:03:40.448Z,40.50
2023-06-10T14:06:07.408Z,40.50
2023-06-10T14:08:34.194Z,40.50
2023-06-10T14:11:00.954Z,40.50
2023-06-10T14:13:27.662Z,40.50
2023-06-10T14:15:54.331Z,40.30
2023-06-10T14:18:21.055Z,40.20
2023-06-10T14:20:47.726Z,40.10
2023-06-10T14:23:14.420Z,40.10
2023-06-10T14:25:41.118Z,40.00
2023-06-10T14:28:07.924Z,40.10
2023-06-10T14:30:34.836Z,40.00
2023-06-10T14:33:01.502Z,40.00
2023-06-10T14:35:28.232Z,40.00
2023-06-10T14:37:54.944Z,40.00
2023-06-10T14:40:24.000Z,40.10
2023-06-10T14:42:50.638Z,40.00
2023-06-10T14:45:17.353Z,40.00
2023-06-10T14:47:44.384Z,40.10
2023-06-10T14:50:11.119Z,40.10
2023-06-10T14:52:37.782Z,40.10
2023-06-10T14:55:04.827Z,40.10
2023-06-10T14:57:33.159Z,40.10
2023-06-10T15:00:01.323Z,40.20
2023-06-10T15:02:28.219Z,40.30
2023-06-10T15:04:55.390Z,40.40
2023-06-10T15:07:22.123Z,40.40
2023-06-10T15:09:48.845Z,40.30
2023-06-10T15:12:15.598Z,40.20
2023-06-10T15:14:42.301Z,40.20
2023-06-10T15:17:09.010Z,40.10
2023-06-10T15:19:35.669Z,40.00
2023-06-10T15:22:02.446Z,40.00
2023-06-10T15:24:29.158Z,39.70
2023-06-10T15:26:55.862Z,39.30
2023-06-10T15:29:22.646Z,39.40
2023-06-10T15:31:49.379Z,39.40
2023-06-10T15:34:16.185Z,39.50
2023-06-10T15:36:42.932Z,39.30
2023-06-10T15:39:09.556Z,39.20
2023-06-10T15:41:36.321Z,39.10
2023-06-10T15:44:03.117Z,39.10
2023-06-10T15:46:31.262Z,39.10
2023-06-10T15:48:58.849Z,38.90
2023-06-10T15:51:25.689Z,38.90
2023-06-10T15:53:52.616Z,38.80
2023-06-10T15:56:19.401Z,38.60
2023-06-10T15:58:46.248Z,38.50
2023-06-10T16:01:13.127Z,38.30
2023-06-10T16:03:40.132Z,38.10
2023-06-10T16:06:07.176Z,38.00
2023-06-10T16:08:34.653Z,37.80
2023-06-10T16:11:01.668Z,37.50
2023-06-10T16:13:28.434Z,37.40
2023-06-10T16:15:55.146Z,37.30
2023-06-10T16:18:22.030Z,37.20
2023-06-10T16:20:48.980Z,37.00
2023-06-10T16:23:15.992Z,36.90
2023-06-10T16:25:43.379Z,36.90
2023-06-10T16:28:10.367Z,36.70
2023-06-10T16:30:37.167Z,36.50
2023-06-10T16:33:04.070Z,36.20
2023-06-10T16:35:31.080Z,35.90
2023-06-10T16:37:58.979Z,35.60
2023-06-10T16:40:27.552Z,35.20
2023-06-10T16:42:54.268Z,35.10
2023-06-10T16:45:21.106Z,34.80
2023-06-10T16:47:48.033Z,34.50
2023-06-10T16:50:14.849Z,34.20
2023-06-10T16:52:41.712Z,34.00
2023-06-10T16:55:09.170Z,33.70
2023-06-10T16:57:36.224Z,33.50
2023-06-10T17:00:03.133Z,33.30
2023-06-10T17:02:29.968Z,33.10
2023-06-10T17:04:56.856Z,32.90
2023-06-10T17:07:24.688Z,32.70
2023-06-10T17:09:51.381Z,32.50
2023-06-10T17:12:18.101Z,32.40
2023-06-10T17:14:44.748Z,32.20
2023-06-10T17:17:11.456Z,32.00
2023-06-10T17:19:38.136Z,31.90
2023-06-10T17:22:04.972Z,31.80
2023-06-10T17:24:31.682Z,31.60
2023-06-10T17:26:58.405Z,31.50
2023-06-10T17:29:25.152Z,31.40
2023-06-10T17:31:51.846Z,31.20
2023-06-10T17:34:19.286Z,31.10
2023-06-10T17:36:46.151Z,31.00
2023-06-10T17:39:13.468Z,30.80
2023-06-10T17:41:40.249Z,30.70
2023-06-10T17:44:07.094Z,30.60
2023-06-10T17:46:34.005Z,30.50
2023-06-10T17:49:00.743Z,30.40
2023-06-10T17:51:27.478Z,30.30
2023-06-10T17:53:54.294Z,30.20
2023-06-10T17:56:21.070Z,30.20
2023-06-10T17:58:47.862Z,30.00
2023-06-10T18:01:14.813Z,30.00
2023-06-10T18:03:41.730Z,29.80
2023-06-10T18:06:08.552Z,29.80
2023-06-10T18:08:36.517Z,29.70
2023-06-10T18:11:04.014Z,29.60
2023-06-10T18:13:32.085Z,29.50
2023-06-10T18:16:01.331Z,29.40
2023-06-10T18:18:28.285Z,29.30
2023-06-10T18:20:54.967Z,29.30
2023-06-10T18:23:21.725Z,29.20
2023-06-10T18:25:48.416Z,29.20
2023-06-10T18:28:15.152Z,29.10
2023-06-10T18:30:42.136Z,29.10
2023-06-10T18:33:08.914Z,29.00
2023-06-10T18:35:35.588Z,28.90
2023-06-10T18:38:02.349Z,28.80
2023-06-10T18:40:29.063Z,28.80
2023-06-10T18:42:55.825Z,28.70
2023-06-10T18:45:24.516Z,28.60
2023-06-10T18:47:58.170Z,28.50
2023-06-10T18:50:26.065Z,28.50
2023-06-10T18:52:52.881Z,28.40
2023-06-10T18:55:20.058Z,28.30
2023-06-10T18:57:46.765Z,28.20
2023-06-10T19:00:14.275Z,28.10
2023-06-10T19:02:41.120Z,28.00
2023-06-10T19:05:10.587Z,27.90
2023-06-10T19:07:37.559Z,27.80
2023-06-10T19:10:04.471Z,27.70
2023-06-10T19:12:31.141Z,27.50
2023-06-10T19:14:57.883Z,27.50
2023-06-10T19:17:24.659Z,27.30
2023-06-10T19:19:52.031Z,27.20
2023-06-10T19:22:19.401Z,27.20
2023-06-10T19:24:58.933Z,27.10
2023-06-10T19:27:25.857Z,26.90
2023-06-10T19:29:52.521Z,26.80
2023-06-10T19:32:19.266Z,26.80
2023-06-10T19:34:45.988Z,26.70
2023-06-10T19:37:12.666Z,26.50
2023-06-10T19:39:39.399Z,26.40
2023-06-10T19:42:09.931Z,26.30
2023-06-10T19:44:38.276Z,26.20
2023-06-10T19:47:05.498Z,26.10
2023-06-10T19:49:32.309Z,26.00
2023-06-10T19:51:59.049Z,25.90
2023-06-10T19:54:25.738Z,25.80
2023-06-10T19:56:52.437Z,25.70
2023-06-10T19:59:19.177Z,25.60
2023-06-10T20:01:45.854Z,25.60
2023-06-10T20:04:12.873Z,25.50
2023-06-10T20:06:40.253Z,25.40
2023-06-10T20:09:07.057Z,25.40
2023-06-10T20:11:33.846Z,25.30
2023-06-10T20:14:00.548Z,25.20
2023-06-10T20:16:27.316Z,25.10
2023-06-10T20:18:53.997Z,25.10
2023-06-10T20:21:21.172Z,25.10
2023-06-10T20:23:48.661Z,25.10
2023-06-10T20:26:15.612Z,25.00
2023-06-10T20:28:42.457Z,25.00
2023-06-10T20:31:09.258Z,25.00
2023-06-10T20:33:35.931Z,24.90
2023-06-10T20:36:02.870Z,24.90
2023-06-10T20:38:29.698Z,24.90
2023-06-10T20:40:56.496Z,24.80
2023-06-10T20:43:23.212Z,24.80
2023-06-10T20:45:50.218Z,24.80
2023-06-10T20:48:17.268Z,24.70
2023-06-10T20:50:44.101Z,24.70
2023-06-10T20:53:10.958Z,24.70
2023-06-10T20:55:37.918Z,24.80
2023-06-10T20:58:04.810Z,24.80
2023-06-10T21:00:31.592Z,24.70
2023-06-10T21:02:58.605Z,24.70
2023-06-10T21:05:25.433Z,24.70
2023-06-10T21:07:52.177Z,24.70
2023-06-10T21:10:19.085Z,24.60
2023-06-10T21:12:46.215Z,24.60
2023-06-10T21:15:13.213Z,24.50
2023-06-10T21:17:40.492Z,24.50
2023-06-10T21:20:07.992Z,24.50
2023-06-10T21:22:34.964Z,24.50
2023-06-10T21:25:01.769Z,24.40
2023-06-10T21:27:28.637Z,24.40
2023-06-10T21:29:55.302Z,24.30
2023-06-10T21:32:23.125Z,24.30
2023-06-10T21:34:49.958Z,24.30
2023-06-10T21:37:16.968Z,24.30
2023-06-10T21:39:44.146Z,24.20
2023-06-10T21:42:11.677Z,24.20
2023-06-10T21:44:38.442Z,24.20
2023-06-10T21:47:05.714Z,24.10
2023-06-10T21:49:32.629Z,24.00
2023-06-10T21:51:59.365Z,24.00
2023-06-10T21:54:26.187Z,23.90
2023-06-10T21:56:52.977Z,23.90
2023-06-10T21:59:22.289Z,23.90
2023-06-10T22:01:49.300Z,23.90
2023-06-10T22:04:16.374Z,23.80
2023-06-10T22:06:44.167Z,23.70
2023-06-10T22:09:11.046Z,23.70
2023-06-10T22:11:38.049Z,23.60
2023-06-10T22:14:04.882Z,23.50
2023-06-10T22:16:31.800Z,23.40
2023-06-10T22:18:58.659Z,23.40
2023-06-10T22:21:25.616Z,23.30
2023-06-10T22:23:52.513Z,23.20
2023-06-10T22:26:19.312Z,23.20
2023-06-10T22:28:46.506Z,23.10
2023-06-10T22:31:13.309Z,23.10
2023-06-10T22:33:40.136Z,23.00
2023-06-10T22:36:06.898Z,22.90
2023-06-10T22:38:33.769Z,22.90
2023-06-10T22:41:00.650Z,22.90
2023-06-10T22:43:27.418Z,22.80
2023-06-10T22:45:54.089Z,22.80
2023-06-10T22:48:21.170Z,22.70
2023-06-10T22:50:47.911Z,22.70
2023-06-10T22:53:14.577Z,22.60
2023-06-10T22:55:41.440Z,22.60
2023-06-10T22:58:08.230Z,22.60
2023-06-10T23:00:34.973Z,22.60
2023-06-10T23:03:02.159Z,22.60
2023-06-10T23:05:28.891Z,22.60
2023-06-10T23:07:55.875Z,22.60
2023-06-10T23:10:22.622Z,22.60
2023-06-10T23:12:49.484Z,22.50
2023-06-10T23:15:16.281Z,22.50
2023-06-10T23:17:46.227Z,22.50
2023-06-10T23:20:14.234Z,22.50
2023-06-10T23:22:42.069Z,22.40
2023-06-10T23:25:10.095Z,22.40
2023-06-10T23:27:37.317Z,22.30
2023-06-10T23:30:04.468Z,22.30
2023-06-10T23:32:32.419Z,22.30
2023-06-10T23:34:59.276Z,22.20
2023-06-10T23:37:26.682Z,22.20
2023-06-10T23:39:55.491Z,22.20
2023-06-10T23:42:24.389Z,22.10
2023-06-10T23:44:51.641Z,22.00
2023-06-10T23:47:18.522Z,21.90
2023-06-10T23:49:46.430Z,21.90
2023-06-10T23:52:13.565Z,21.90
2023-06-10T23:54:40.856Z,21.80
2023-06-10T23:57:07.935Z,21.80
2023-06-10T23:59:34.674Z,21.70
